createdAt,value
2022-10-05T00:04:58.882Z,14.22
2022-10-05T00:09:59.736Z,14.13
2022-10-05T00:15:01.972Z,14.15
2022-10-05T00:20:02.627Z,14.23
2022-10-05T00:25:03.138Z,14.24
2022-10-05T00:30:11.555Z,14.31
2022-10-05T00:35:13.071Z,14.34
2022-10-05T00:40:24.141Z,14.41
2022-10-05T00:45:28.406Z,14.35
2022-10-05T00:50:55.716Z,14.06
2022-10-05T00:56:02.607Z,13.90
2022-10-05T01:01:10.780Z,13.95
2022-10-05T01:06:22.693Z,13.88
2022-10-05T01:11:29.137Z,13.99
2022-10-05T01:16:37.217Z,13.97
2022-10-05T01:21:43.850Z,13.97
2022-10-05T01:27:20.536Z,13.99
2022-10-05T01:32:27.162Z,13.96
2022-10-05T01:37:31.422Z,13.59
2022-10-05T01:42:45.464Z,13.52
2022-10-05T01:47:49.279Z,13.55
2022-10-05T01:52:57.690Z,13.44
2022-10-05T01:58:08.842Z,13.49
2022-10-05T02:03:14.841Z,13.59
2022-10-05T02:08:17.896Z,13.52
2022-10-05T02:13:24.034Z,13.57
2022-10-05T02:18:28.984Z,13.59
2022-10-05T02:23:33.967Z,13.56
2022-10-05T02:28:38.155Z,13.47
2022-10-05T02:33:38.751Z,13.33
2022-10-05T02:39:01.799Z,13.38
2022-10-05T02:44:12.194Z,13.27
2022-10-05T02:49:20.849Z,13.21
2022-10-05T02:54:33.723Z,13.22
2022-10-05T02:59:47.925Z,13.20
2022-10-05T03:05:09.438Z,13.19
2022-10-05T03:10:28.766Z,13.13
2022-10-05T03:15:43.990Z,13.13
2022-10-05T03:20:50.247Z,13.07
2022-10-05T03:26:10.232Z,13.13
2022-10-05T03:31:22.888Z,13.13
2022-10-05T03:36:34.051Z,13.04
2022-10-05T03:41:39.128Z,13.04
2022-10-05T03:46:50.732Z,12.95
2022-10-05T03:51:56.985Z,12.97
2022-10-05T03:56:58.671Z,12.98
2022-10-05T04:02:01.539Z,12.92
2022-10-05T04:07:07.489Z,12.86
2022-10-05T04:12:17.549Z,12.81
2022-10-05T04:17:23.183Z,12.79
2022-10-05T04:22:29.373Z,13.01
2022-10-05T04:27:34.646Z,12.96
2022-10-05T04:32:38.941Z,12.89
2022-10-05T04:37:51.894Z,12.83
2022-10-05T04:43:00.948Z,12.72
2022-10-05T04:48:20.454Z,12.64
2022-10-05T04:53:30.881Z,12.61
2022-10-05T04:58:45.966Z,12.62
2022-10-05T05:04:08.512Z,12.54
2022-10-05T05:09:43.847Z,12.38
2022-10-05T05:15:04.464Z,12.39
2022-10-05T05:20:18.426Z,12.06
2022-10-05T05:25:31.343Z,12.15
2022-10-05T05:30:38.769Z,12.13
2022-10-05T05:36:04.550Z,12.31
2022-10-05T05:41:10.929Z,12.43
2022-10-05T05:46:18.027Z,12.62
2022-10-05T05:51:22.230Z,12.75
2022-10-05T05:56:32.226Z,12.75
2022-10-05T06:01:35.032Z,12.81
2022-10-05T06:06:44.057Z,12.74
2022-10-05T06:11:50.147Z,12.80
2022-10-05T06:16:54.958Z,12.71
2022-10-05T06:22:01.198Z,12.91
2022-10-05T06:27:25.841Z,12.85
2022-10-05T06:32:31.336Z,12.98
2022-10-05T06:37:49.711Z,13.11
2022-10-05T06:43:09.724Z,13.27
2022-10-05T06:48:17.584Z,13.25
2022-10-05T06:53:52.989Z,13.46
2022-10-05T06:59:01.151Z,13.52
2022-10-05T07:04:21.367Z,13.67
2022-10-05T07:09:32.944Z,14.96
2022-10-05T07:14:50.513Z,16.22
2022-10-05T07:19:59.547Z,17.02
2022-10-05T07:25:03.960Z,17.42
2022-10-05T07:30:07.720Z,17.97
2022-10-05T07:35:29.496Z,18.09
2022-10-05T07:40:34.537Z,18.02
2022-10-05T07:45:46.357Z,17.26
2022-10-05T07:51:00.086Z,16.83
2022-10-05T07:56:04.849Z,16.64
2022-10-05T08:01:17.067Z,16.54
2022-10-05T08:06:21.412Z,16.16
2022-10-05T08:11:25.854Z,16.35
2022-10-05T08:16:32.265Z,15.91
2022-10-05T08:21:37.439Z,16.22
2022-10-05T08:26:43.399Z,16.32
2022-10-05T08:31:48.997Z,16.56
2022-10-05T08:36:56.415Z,16.47
2022-10-05T08:42:18.803Z,16.35
2022-10-05T08:47:29.055Z,17.14
2022-10-05T08:52:30.413Z,17.99
2022-10-05T08:58:04.870Z,19.17
2022-10-05T09:03:22.949Z,19.97
2022-10-05T09:08:45.485Z,20.74
2022-10-05T09:13:55.048Z,22.29
2022-10-05T09:19:27.800Z,22.28
2022-10-05T09:24:29.736Z,23.13
2022-10-05T09:29:45.216Z,25.02
2022-10-05T09:35:07.326Z,25.46
2022-10-05T09:40:51.105Z,25.72
2022-10-05T09:46:17.370Z,26.57
2022-10-05T09:51:40.391Z,26.98
2022-10-05T09:57:05.587Z,27.83
2022-10-05T10:02:30.755Z,28.37
2022-10-05T10:07:54.043Z,28.76
2022-10-05T10:13:05.860Z,29.48
2022-10-05T10:18:40.544Z,30.45
2022-10-05T10:24:06.894Z,30.38
2022-10-05T10:29:32.513Z,30.31
2022-10-05T10:35:04.160Z,31.14
2022-10-05T10:40:23.435Z,31.27
2022-10-05T10:45:45.544Z,31.71
2022-10-05T10:51:19.342Z,32.54
2022-10-05T10:56:32.709Z,32.29
2022-10-05T11:01:36.476Z,32.12
2022-10-05T11:07:13.951Z,32.04
2022-10-05T11:12:49.083Z,32.52
2022-10-05T11:18:07.954Z,33.13
2022-10-05T11:23:34.167Z,33.48
2022-10-05T11:28:54.274Z,33.65
2022-10-05T11:34:39.766Z,32.58
2022-10-05T11:39:44.726Z,32.37
2022-10-05T11:45:25.112Z,33.54
2022-10-05T11:50:34.081Z,33.79
2022-10-05T11:55:38.699Z,34.10
2022-10-05T12:00:43.897Z,33.87
2022-10-05T12:05:59.906Z,34.21
2022-10-05T12:11:09.357Z,34.69
2022-10-05T12:16:16.843Z,34.74
2022-10-05T12:21:27.786Z,35.46
2022-10-05T12:26:31.218Z,35.75
2022-10-05T12:31:41.751Z,36.03
2022-10-05T12:37:04.976Z,35.67
2022-10-05T12:42:17.413Z,35.31
2022-10-05T12:47:27.409Z,35.60
2022-10-05T12:52:44.001Z,35.63
2022-10-05T12:57:51.033Z,36.27
2022-10-05T13:02:52.131Z,36.49
2022-10-05T13:08:12.922Z,36.83
2022-10-05T13:13:34.322Z,36.33
2022-10-05T13:18:43.055Z,35.97
2022-10-05T13:23:57.653Z,35.68
2022-10-05T13:29:01.416Z,35.78
2022-10-05T13:34:12.820Z,36.42
2022-10-05T13:39:25.046Z,36.50
2022-10-05T13:44:32.481Z,36.71
2022-10-05T13:49:40.239Z,37.11
2022-10-05T13:54:46.279Z,35.77
2022-10-05T13:59:54.549Z,35.23
2022-10-05T14:05:01.633Z,35.24
2022-10-05T14:10:04.710Z,35.05
2022-10-05T14:15:21.356Z,35.74
2022-10-05T14:20:25.151Z,36.14
2022-10-05T14:25:25.494Z,35.74
2022-10-05T14:30:25.894Z,35.41
2022-10-05T14:35:30.069Z,35.65
2022-10-05T14:40:33.231Z,34.79
2022-10-05T14:45:33.496Z,34.13
2022-10-05T14:50:33.044Z,33.48
2022-10-05T14:56:01.289Z,33.91
2022-10-05T15:01:11.299Z,34.29
2022-10-05T15:06:13.891Z,34.64
2022-10-05T15:11:21.776Z,33.89
2022-10-05T15:16:25.804Z,33.29
2022-10-05T15:21:50.314Z,32.88
2022-10-05T15:26:52.706Z,32.13
2022-10-05T15:31:59.535Z,31.50
2022-10-05T15:37:03.370Z,31.05
2022-10-05T15:42:11.708Z,30.63
2022-10-05T15:47:20.287Z,30.19
2022-10-05T15:52:28.300Z,29.58
2022-10-05T15:57:42.173Z,29.00
2022-10-05T16:02:47.448Z,28.40
2022-10-05T16:08:10.710Z,27.78
2022-10-05T16:13:21.262Z,27.08
2022-10-05T16:18:43.192Z,26.17
2022-10-05T16:23:58.874Z,25.73
2022-10-05T16:29:06.538Z,25.37
2022-10-05T16:34:19.174Z,24.98
2022-10-05T16:39:27.035Z,24.57
2022-10-05T16:44:38.667Z,24.20
2022-10-05T16:49:45.703Z,23.88
2022-10-05T16:54:49.001Z,23.60
2022-10-05T17:00:13.469Z,23.27
2022-10-05T17:05:30.917Z,22.98
2022-10-05T17:10:47.468Z,22.27
2022-10-05T17:16:03.563Z,21.65
2022-10-05T17:21:11.070Z,21.58
2022-10-05T17:26:34.858Z,21.54
2022-10-05T17:32:01.868Z,21.42
2022-10-05T17:37:17.495Z,21.36
2022-10-05T17:42:48.614Z,21.25
2022-10-05T17:47:57.822Z,21.08
2022-10-05T17:53:38.762Z,20.97
2022-10-05T17:59:02.772Z,20.82
2022-10-05T18:04:38.984Z,20.75
2022-10-05T18:09:56.183Z,20.70
2022-10-05T18:15:02.122Z,20.68
2022-10-05T18:20:35.369Z,20.55
2022-10-05T18:25:45.231Z,20.44
2022-10-05T18:31:01.997Z,20.18
2022-10-05T18:36:13.265Z,20.04
2022-10-05T18:41:22.713Z,19.90
2022-10-05T18:46:31.786Z,19.81
2022-10-05T18:51:41.516Z,19.63
2022-10-05T18:56:46.263Z,19.46
2022-10-05T19:02:14.089Z,19.25
2022-10-05T19:07:27.721Z,19.10
2022-10-05T19:12:40.625Z,19.03
2022-10-05T19:18:13.455Z,18.88
2022-10-05T19:23:33.613Z,18.82
2022-10-05T19:28:38.432Z,18.77
2022-10-05T19:33:57.187Z,18.68
2022-10-05T19:39:08.148Z,18.55
2022-10-05T19:44:20.023Z,18.28
2022-10-05T19:49:37.511Z,18.15
2022-10-05T19:54:37.736Z,18.12
2022-10-05T19:59:40.582Z,18.09
2022-10-05T20:04:44.760Z,18.02
2022-10-05T20:09:53.624Z,17.91
2022-10-05T20:15:27.543Z,17.80
2022-10-05T20:20:36.633Z,17.75
2022-10-05T20:25:40.336Z,17.72
2022-10-05T20:30:39.110Z,17.61
2022-10-05T20:35:37.808Z,17.57
2022-10-05T20:40:39.096Z,17.51
2022-10-05T20:45:43.845Z,17.41
2022-10-05T20:50:42.601Z,17.32
2022-10-05T20:55:43.177Z,17.27
2022-10-05T21:00:59.487Z,17.20
2022-10-05T21:05:59.346Z,17.13
2022-10-05T21:10:59.836Z,17.12
2022-10-05T21:15:58.625Z,17.05
2022-10-05T21:21:01.397Z,16.99
2022-10-05T21:26:02.711Z,16.91
2022-10-05T21:31:01.526Z,16.81
2022-10-05T21:36:00.408Z,16.76
2022-10-05T21:40:59.565Z,16.73
2022-10-05T21:46:01.116Z,16.65
2022-10-05T21:51:00.931Z,16.59
2022-10-05T21:56:02.888Z,16.49
2022-10-05T22:01:03.410Z,16.42
2022-10-05T22:06:03.774Z,16.27
2022-10-05T22:11:10.234Z,16.17
2022-10-05T22:16:10.894Z,16.08
2022-10-05T22:21:12.437Z,16.00
2022-10-05T22:26:13.717Z,15.92
2022-10-05T22:31:14.975Z,15.83
2022-10-05T22:36:13.803Z,15.74
2022-10-05T22:41:13.291Z,15.61
2022-10-05T22:46:14.623Z,15.53
2022-10-05T22:51:13.894Z,15.45
2022-10-05T22:56:14.262Z,15.41
2022-10-05T23:01:16.840Z,15.29
2022-10-05T23:06:18.349Z,15.21
2022-10-05T23:11:19.263Z,15.18
2022-10-05T23:16:21.186Z,15.19
2022-10-05T23:21:20.847Z,15.19
2022-10-05T23:26:22.996Z,15.08
2022-10-05T23:31:25.581Z,15.01
2022-10-05T23:36:25.873Z,14.99
2022-10-05T23:41:25.071Z,15.00
2022-10-05T23:46:25.788Z,14.98
2022-10-05T23:51:24.541Z,14.92
2022-10-05T23:56:23.382Z,14.89
